Ribeirao das Neves, Brazil
Current Conditions -  °F | °C
As of 4:14 PM on Sunday 21 Dec 2014 (Local Time) from SBBH Reporting Station
Thunderstorm Thunderstorm  
Wind Chill: 75°   Ceiling: 3000
Heat Index: 75°   Visibility: 4mi
Dew Point: 70°   Wind: 7mph
Humidity: 83%   Direction: 90°E
Pressure: 29.94"   Gusts: NA
Location:  19.76°S, 44.08°W
Report Text: SBBH 211814Z 09006KT 6000 -TSRA BKN030 FEW035CB 24/21 Q1014
Loading
Personal Weather Stations






























Interactive Weather Map New forecast layout! Learn more

10-Day Weather Forecast

Advertisements
Track Severe Weather on mobile